createdAt,value
2022-08-17T00:03:55.508Z,78.64
2022-08-17T00:14:08.484Z,78.74
2022-08-17T00:24:16.211Z,78.90
2022-08-17T00:34:25.676Z,79.00
2022-08-17T00:44:35.183Z,79.09
2022-08-17T00:54:46.011Z,79.19
2022-08-17T01:04:56.083Z,79.57
2022-08-17T01:15:03.380Z,79.49
2022-08-17T01:25:12.748Z,79.29
2022-08-17T01:35:18.384Z,79.14
2022-08-17T01:45:22.658Z,79.22
2022-08-17T01:55:27.763Z,79.31
2022-08-17T02:05:33.173Z,79.80
2022-08-17T02:15:41.730Z,79.92
2022-08-17T02:25:48.080Z,80.18
2022-08-17T02:35:54.996Z,80.26
2022-08-17T02:46:02.040Z,80.33
2022-08-17T02:56:09.639Z,80.42
2022-08-17T03:06:16.830Z,80.66
2022-08-17T03:16:23.798Z,80.79
2022-08-17T03:26:32.510Z,80.74
2022-08-17T03:36:39.519Z,80.92
2022-08-17T03:47:04.184Z,80.84
2022-08-17T03:57:13.235Z,80.91
2022-08-17T04:07:19.398Z,81.09
2022-08-17T04:17:23.477Z,80.96
2022-08-17T04:27:30.724Z,80.90
2022-08-17T04:37:37.669Z,81.17
2022-08-17T04:47:44.706Z,80.74
2022-08-17T04:57:50.934Z,79.70
2022-08-17T05:07:59.494Z,79.17
2022-08-17T05:18:05.556Z,77.99
2022-08-17T05:28:13.579Z,76.89
2022-08-17T05:38:23.201Z,76.65
2022-08-17T05:48:39.059Z,75.37
2022-08-17T05:58:49.034Z,75.62
2022-08-17T06:08:55.250Z,74.26
2022-08-17T06:19:00.009Z,73.11
2022-08-17T06:29:18.564Z,72.20
2022-08-17T06:39:36.228Z,71.21
2022-08-17T06:49:47.866Z,69.80
2022-08-17T07:00:00.388Z,68.93
2022-08-17T07:10:10.522Z,66.52
2022-08-17T07:20:21.531Z,67.42
2022-08-17T07:30:31.283Z,65.78
2022-08-17T07:41:00.280Z,65.66
2022-08-17T07:51:16.192Z,65.55
2022-08-17T08:01:23.352Z,64.41
2022-08-17T08:11:41.269Z,63.93
2022-08-17T08:22:00.159Z,63.19
2022-08-17T08:32:09.762Z,61.17
2022-08-17T08:42:19.416Z,60.83
2022-08-17T08:52:30.946Z,59.46
2022-08-17T09:03:04.221Z,60.20
2022-08-17T09:13:20.276Z,60.07
2022-08-17T09:23:27.160Z,59.05
2022-08-17T09:33:39.236Z,57.06
2022-08-17T09:43:50.762Z,56.84
2022-08-17T09:54:14.756Z,56.61
2022-08-17T10:04:32.812Z,55.64
2022-08-17T10:14:55.089Z,55.52
2022-08-17T10:25:24.816Z,56.18
2022-08-17T10:35:40.757Z,55.21
2022-08-17T10:45:48.443Z,54.15
2022-08-17T10:56:21.885Z,53.88
2022-08-17T11:06:36.377Z,54.51
2022-08-17T11:16:43.220Z,53.69
2022-08-17T11:27:02.431Z,53.42
2022-08-17T11:37:25.467Z,52.42
2022-08-17T11:48:08.938Z,52.28
2022-08-17T11:58:37.472Z,52.10
2022-08-17T12:08:50.745Z,51.98
2022-08-17T12:19:04.073Z,51.00
2022-08-17T12:29:18.448Z,49.55
